Airfield :
LOGIN :

Register | Disclaimer

   EN    FR    IT 

 










Legend :    VFR   Marginal VFR   IFR   Intensive IFR   Very Intensive IFR
Visi :
Ceiling :
>= 8 km
>= 3000ft
5 to 8 km
1000 to 3000 ft
1500m to 5 km
500 to 1000 ft
800 to 1500m
200 to 500 ft
< 800m
< 200 ft
Symbols :   Thunderstorms  Fog  Heavy snow  Heavy precipitations  Wind > 20 kt
SIGMETs :     Misc.  Thunderstorms  Icing  Turbulence  Mountain Waves  Volcanic Ashes







- Airport Elevation : 170 ft
- IATA code : BGO


ENBR - Bergen , Flesland

CURRENT METAR :
  • 162250Z 13003KT 9999 SCT011 SCT031 04/03 Q1014 RMK WIND 1200FT 15013KT

EXPIRED METARs :
  • 162220Z 14004KT 9999 FEW011 SCT030 04/03 Q1014 RMK WIND 1200FT 15011KT
  • 162150Z 14005KT 9999 FEW011 SCT033 03/02 Q1014 RMK WIND 1200FT 16010KT
  • 162120Z 14006KT 9999 SCT012 SCT016 03/02 Q1014 RMK WIND 1200FT 16012KT
  • 162050Z 14005KT 9999 FEW010 SCT015 03/02 Q1014 RMK WIND 1200FT 15012KT
  • 162020Z 13004KT 9999 FEW015 03/02 Q1013 RMK WIND 1200FT 14012KT

TAF TAF ENBR
Valid from the 16 at 18:00 until the 17 at 18:00 UTC


1618/1718 VRB05KT 9999 FEW010 BKN015
PROB40 1618/1624 3000 BR BKN008
TEMPO 1700/1708 1200 DZRA BR BKN003
BECMG 1703/1706 15012KT
BECMG 1709/1712 16018G28KT
No reported NOTAMs for that airfield.



MET'MAP, your aeronautical weather chart ! - Copyright ORBIFLY December 2007 - Disclaimer

ORBIFLY MET'MAP TEAM :

Programming & Development : Alexandra Zaïnal
Concept & Development : Baudouin d'Aumeries
Co-Development & Prog : Marc-Olivier Méhu
Technical & hardware support : Manuel Goepfert

Contact : metmap@orbifly.com




SOURCES & CREDITS :

   NOAA